Time;durP1;ratioP1;P1;durP2;ratioP2;P2;SDS_P1;SDS_P2;PMS_P1;PMS_P2;Temp;Humidity;BMP_temperature;BMP_pressure;BME280_temperature;BME280_humidity;BME280_pressure;Samples;Min_cycle;Max_cycle;Signal;HPM_P1;HPM_P2
2023/06/07 00:01:46;;;;;;;2.90;2.50;;;19.70;74.70;;;20.16;nan;100742.19;5023294;28;21036;-67
2023/06/07 00:04:13;;;;;;;2.40;2.20;;;19.70;74.90;;;20.17;nan;100742.00;5009248;28;20644;-67
2023/06/07 00:06:40;;;;;;;2.47;2.30;;;19.70;75.10;;;20.11;nan;100740.88;5008322;28;21243;-66
2023/06/07 00:09:09;;;;;;;2.07;1.97;;;19.60;75.50;;;20.06;nan;100737.06;5028327;28;20620;-67
2023/06/07 00:11:37;;;;;;;2.43;2.23;;;19.60;75.90;;;20.04;nan;100737.25;5019372;28;20653;-67
2023/06/07 00:14:04;;;;;;;2.00;1.90;;;19.60;76.00;;;19.97;nan;100735.44;5016968;28;20644;-68
2023/06/07 00:16:34;;;;;;;2.20;2.10;;;19.50;77.20;;;19.88;nan;100739.94;5018235;28;20636;-67
2023/06/07 00:19:03;;;;;;;2.00;1.90;;;19.40;77.10;;;19.85;nan;100742.06;5015690;28;20649;-67
2023/06/07 00:21:31;;;;;;;2.10;2.00;;;19.40;77.80;;;19.83;nan;100739.59;5018420;28;20811;-67
2023/06/07 00:23:58;;;;;;;1.93;1.83;;;19.30;78.10;;;19.85;nan;100737.59;5016841;28;21234;-67
2023/06/07 00:26:25;;;;;;;2.93;2.67;;;19.40;78.30;;;19.84;nan;100735.97;5026711;28;20668;-66
2023/06/07 00:28:52;;;;;;;4.20;2.67;;;19.30;78.50;;;19.85;nan;100737.59;5023493;28;20660;-67
2023/06/07 00:31:19;;;;;;;2.33;2.23;;;19.40;78.70;;;19.84;nan;100738.59;5024700;28;20660;-67
2023/06/07 00:33:46;;;;;;;2.30;2.20;;;19.30;78.70;;;19.85;nan;100736.75;5008981;28;20662;-67
2023/06/07 00:36:13;;;;;;;2.63;2.43;;;19.40;78.40;;;19.86;nan;100739.25;5025199;28;20637;-67
2023/06/07 00:38:40;;;;;;;2.70;2.60;;;19.40;78.50;;;19.86;nan;100731.31;5018484;28;21371;-67
2023/06/07 00:41:07;;;;;;;2.33;2.13;;;19.40;78.50;;;19.86;nan;100731.31;5029397;28;20679;-67
2023/06/07 00:43:34;;;;;;;3.20;2.80;;;19.30;78.50;;;19.84;nan;100732.47;5008020;28;20707;-68
2023/06/07 00:46:04;;;;;;;3.00;2.70;;;19.30;78.70;;;19.84;nan;100727.19;5028148;28;20863;-67
2023/06/07 00:48:32;;;;;;;2.60;2.20;;;19.30;78.90;;;19.85;nan;100734.13;5030078;28;20605;-68
2023/06/07 00:51:00;;;;;;;2.73;2.53;;;19.40;79.20;;;19.83;nan;100726.34;5021931;28;20657;-67
2023/06/07 00:53:27;;;;;;;2.73;2.53;;;19.30;79.50;;;19.77;nan;100729.66;5014038;28;20656;-68
2023/06/07 00:55:54;;;;;;;2.90;2.70;;;19.30;80.10;;;19.73;nan;100725.72;5030147;28;20644;-67
2023/06/07 00:58:22;;;;;;;3.13;2.83;;;19.20;80.50;;;19.69;nan;100720.91;5028987;28;20636;-69
2023/06/07 01:00:49;;;;;;;2.23;2.13;;;19.20;81.00;;;19.63;nan;100721.56;5031546;28;20656;-69
2023/06/07 01:03:17;;;;;;;2.30;2.20;;;19.10;81.90;;;19.55;nan;100730.31;5010182;28;20645;-66
2023/06/07 01:05:44;;;;;;;2.30;2.20;;;19.10;82.70;;;19.54;nan;100727.84;5014145;28;20645;-68
2023/06/07 01:08:11;;;;;;;2.27;2.07;;;19.10;83.10;;;19.51;nan;100729.00;5012156;28;20640;-68
2023/06/07 01:10:39;;;;;;;2.80;2.57;;;19.00;83.10;;;19.40;nan;100729.31;5009772;28;20720;-67
2023/06/07 01:13:08;;;;;;;3.00;2.77;;;18.90;83.70;;;19.37;nan;100720.91;5010108;28;20617;-70
2023/06/07 01:15:36;;;;;;;2.47;2.37;;;18.90;83.90;;;19.37;nan;100721.75;5033009;28;20678;-70
2023/06/07 01:18:04;;;;;;;2.10;2.00;;;18.90;84.20;;;19.37;nan;100720.91;5030059;28;20632;-69
2023/06/07 01:20:33;;;;;;;2.40;2.20;;;18.90;84.50;;;19.36;nan;100713.97;5031549;28;20721;-66
2023/06/07 01:23:05;;;;;;;2.47;2.27;;;18.90;84.70;;;19.29;nan;100714.56;5024013;28;20645;-69
2023/06/07 01:25:33;;;;;;;2.30;2.20;;;18.80;84.90;;;19.24;nan;100722.19;5021957;28;20617;-66
2023/06/07 01:28:01;;;;;;;2.37;2.27;;;18.80;85.10;;;19.23;nan;100720.53;5010846;28;21428;-68
2023/06/07 01:30:31;;;;;;;2.87;2.27;;;18.80;85.90;;;19.18;nan;100717.56;5040829;28;21034;-64
2023/06/07 01:33:02;;;;;;;3.10;2.60;;;18.70;85.10;;;19.18;nan;100714.09;5051683;28;20676;-69
2023/06/07 01:35:30;;;;;;;2.40;2.23;;;18.70;85.30;;;19.16;nan;100718.72;5026383;28;20616;-67
2023/06/07 01:37:58;;;;;;;2.40;2.30;;;18.70;85.50;;;19.15;nan;100706.47;5020797;28;20623;-68
2023/06/07 01:40:26;;;;;;;2.30;2.20;;;18.70;85.20;;;19.11;nan;100713.06;5031139;28;20862;-66
2023/06/07 01:42:54;;;;;;;3.13;2.60;;;18.60;85.30;;;19.05;nan;100706.63;5020359;28;20648;-66
2023/06/07 01:45:22;;;;;;;2.00;1.90;;;18.60;85.30;;;19.05;nan;100701.34;5015382;28;20645;-67
2023/06/07 01:47:49;;;;;;;2.33;2.13;;;18.60;85.30;;;19.03;nan;100700.69;5009396;28;20669;-68
2023/06/07 01:50:22;;;;;;;2.20;2.10;;;18.60;85.30;;;19.04;nan;100699.66;5011959;28;20668;-67
2023/06/07 01:52:49;;;;;;;3.43;2.20;;;18.60;85.40;;;19.05;nan;100700.50;5015657;28;20644;-67
2023/06/07 01:55:17;;;;;;;2.80;2.60;;;18.60;85.40;;;19.05;nan;100700.50;5011561;28;20637;-68
2023/06/07 01:58:00;;;;;;;2.73;2.53;;;18.60;85.70;;;18.95;nan;100689.25;5008032;28;20625;-65
2023/06/07 02:00:55;;;;;;;2.63;2.43;;;18.50;85.60;;;18.97;nan;100700.50;5025841;28;20668;-66
2023/06/07 02:03:35;;;;;;;2.27;2.10;;;18.50;86.00;;;18.94;nan;100700.81;5012774;28;20645;-67
2023/06/07 02:06:06;;;;;;;2.60;2.17;;;18.50;86.00;;;18.90;nan;100699.47;5038836;28;20718;-68
2023/06/07 02:08:38;;;;;;;3.47;2.50;;;18.50;85.90;;;18.82;nan;100695.00;5014095;28;20632;-67
2023/06/07 02:11:07;;;;;;;2.13;2.03;;;18.40;86.50;;;18.74;nan;100702.09;5018660;28;20668;-67
2023/06/07 02:13:38;;;;;;;2.20;2.10;;;18.30;86.20;;;18.64;nan;100699.56;5009781;28;21627;-65
2023/06/07 02:16:06;;;;;;;2.73;2.53;;;18.20;86.90;;;18.60;nan;100700.88;5020816;28;21239;-67
2023/06/07 02:18:37;;;;;;;2.40;2.20;;;18.20;87.50;;;18.55;nan;100705.81;5023054;28;20630;-66
2023/06/07 02:21:04;;;;;;;1.70;1.63;;;18.10;88.10;;;18.53;nan;100697.22;5014593;28;20729;-67
2023/06/07 02:23:31;;;;;;;2.43;2.27;;;18.10;89.00;;;18.52;nan;100696.41;5022224;28;20632;-67
2023/06/07 02:25:58;;;;;;;2.50;2.30;;;18.10;89.40;;;18.51;nan;100691.25;5010513;28;20710;-68
2023/06/07 02:28:25;;;;;;;2.60;2.40;;;18.10;89.60;;;18.50;nan;100700.19;5014710;28;20616;-70
2023/06/07 02:30:57;;;;;;;2.93;2.60;;;18.10;90.00;;;18.46;nan;100689.09;5010813;28;20650;-67
2023/06/07 02:33:25;;;;;;;2.73;2.50;;;18.00;90.00;;;18.46;nan;100699.66;5010465;28;20645;-68
2023/06/07 02:35:52;;;;;;;2.37;2.23;;;18.00;90.30;;;18.47;nan;100693.41;5028474;28;20640;-67
2023/06/07 02:38:19;;;;;;;2.70;2.47;;;18.00;90.50;;;18.51;nan;100699.19;5014097;28;21150;-67
2023/06/07 02:40:47;;;;;;;3.07;2.50;;;18.10;90.60;;;18.52;nan;100704.34;5025553;28;20737;-67
2023/06/07 02:43:14;;;;;;;2.97;2.77;;;18.10;90.70;;;18.50;nan;100702.84;5026837;28;20643;-70
2023/06/07 02:45:41;;;;;;;3.93;3.43;;;18.10;90.70;;;18.41;nan;100694.03;5029521;28;20645;-67
2023/06/07 02:48:08;;;;;;;3.70;3.40;;;18.00;91.00;;;18.38;nan;100696.13;5024032;28;20664;-69
2023/06/07 02:50:35;;;;;;;3.40;3.20;;;17.90;91.20;;;18.39;nan;100701.28;5023442;28;20673;-65
2023/06/07 02:53:05;;;;;;;3.20;3.00;;;18.00;91.30;;;18.40;nan;100705.56;5021466;28;20655;-66
2023/06/07 02:55:33;;;;;;;3.30;3.10;;;18.00;91.50;;;18.36;nan;100703.38;5014411;28;20644;-67
2023/06/07 02:58:01;;;;;;;3.00;2.70;;;17.90;91.70;;;18.36;nan;100703.38;5021503;28;20753;-71
2023/06/07 03:00:28;;;;;;;3.33;2.97;;;17.90;91.90;;;18.37;nan;100708.53;5019579;28;20656;-67
2023/06/07 03:02:55;;;;;;;2.97;2.77;;;17.90;92.10;;;18.37;nan;100699.78;5034119;28;20643;-67
2023/06/07 03:05:23;;;;;;;3.20;2.90;;;17.90;92.30;;;18.37;nan;100705.06;5025532;28;20637;-69
2023/06/07 03:07:51;;;;;;;4.50;3.00;;;17.90;92.50;;;18.33;nan;100701.91;5008282;28;20671;-67
2023/06/07 03:10:18;;;;;;;3.13;2.93;;;17.90;92.70;;;18.34;nan;100710.66;5010911;28;20998;-67
2023/06/07 03:12:45;;;;;;;3.07;2.77;;;17.90;92.90;;;18.34;nan;100714.13;5019827;28;21006;-71
2023/06/07 03:15:12;;;;;;;2.77;2.57;;;17.90;93.10;;;18.31;nan;100714.44;5028652;28;20654;-72
2023/06/07 03:17:43;;;;;;;2.57;2.40;;;17.80;93.30;;;18.31;nan;100711.81;5011662;28;20616;-70
2023/06/07 03:20:10;;;;;;;2.90;2.70;;;17.90;93.50;;;18.31;nan;100711.81;5022513;28;20682;-68
2023/06/07 03:22:37;;;;;;;3.27;2.97;;;17.90;93.80;;;18.30;nan;100715.44;5028791;28;20643;-68
2023/06/07 03:25:06;;;;;;;3.63;2.73;;;17.80;93.90;;;18.30;nan;100715.44;5011035;28;20640;-70
2023/06/07 03:27:34;;;;;;;2.23;2.10;;;17.90;94.10;;;18.25;nan;100717.69;5010655;28;20645;-71
2023/06/07 03:30:01;;;;;;;3.00;2.63;;;17.80;94.20;;;18.20;nan;100714.72;5028833;28;20643;-69
2023/06/07 03:32:29;;;;;;;2.40;2.27;;;17.80;94.60;;;18.16;nan;100721.31;5030339;28;20620;-71
2023/06/07 03:34:56;;;;;;;2.70;2.50;;;17.70;94.80;;;18.06;nan;100711.84;5026818;28;20644;-67
2023/06/07 03:37:23;;;;;;;2.70;2.50;;;17.70;95.30;;;18.05;nan;100718.09;5026116;28;20639;-68
2023/06/07 03:39:50;;;;;;;2.37;2.20;;;17.60;95.60;;;18.00;nan;100713.28;5029015;28;20616;-67
2023/06/07 03:42:17;;;;;;;2.03;1.93;;;17.60;96.00;;;17.97;nan;100718.88;5025754;28;20669;-69
2023/06/07 03:44:44;;;;;;;5.10;2.50;;;17.60;96.30;;;17.94;nan;100723.63;5028163;28;20647;-67
2023/06/07 03:47:11;;;;;;;2.10;2.00;;;17.50;96.20;;;17.93;nan;100724.63;5028231;28;21246;-67
2023/06/07 03:49:38;;;;;;;2.70;2.50;;;17.50;96.50;;;17.88;nan;100726.88;5028184;28;20612;-66
2023/06/07 03:52:06;;;;;;;2.53;2.17;;;17.50;96.50;;;17.89;nan;100732.00;5014096;28;20661;-67
2023/06/07 03:54:36;;;;;;;2.40;2.20;;;17.50;96.70;;;17.90;nan;100732.84;5015227;28;20648;-66
2023/06/07 03:57:03;;;;;;;4.03;2.70;;;17.50;96.80;;;17.87;nan;100726.03;5022166;28;20644;-67
2023/06/07 03:59:31;;;;;;;2.50;2.30;;;17.50;96.90;;;17.84;nan;100723.75;5026372;28;20628;-67
2023/06/07 04:01:58;;;;;;;2.37;2.27;;;17.50;96.90;;;17.83;nan;100736.09;5023819;28;20688;-67
2023/06/07 04:04:29;;;;;;;2.70;2.47;;;17.40;96.90;;;17.91;nan;100730.03;5011162;28;20637;-67
2023/06/07 04:06:56;;;;;;;3.20;2.70;;;17.50;96.90;;;17.99;nan;100722.19;5008197;28;20649;-71
2023/06/07 04:09:23;;;;;;;4.50;3.40;;;17.60;96.50;;;18.03;nan;100723.53;5023065;28;21207;-68
2023/06/07 04:11:50;;;;;;;3.27;3.00;;;17.60;96.30;;;18.13;nan;100729.53;5028681;28;20649;-71
2023/06/07 04:14:17;;;;;;;2.77;2.57;;;17.70;96.10;;;18.17;nan;100730.88;5019239;28;20638;-67
2023/06/07 04:16:44;;;;;;;2.47;2.30;;;17.70;95.90;;;18.21;nan;100721.63;5026470;28;20630;-71
2023/06/07 04:19:11;;;;;;;2.40;2.30;;;17.80;95.80;;;18.26;nan;100740.50;5014373;28;20644;-66
2023/06/07 04:21:39;;;;;;;2.37;2.17;;;17.80;95.80;;;18.27;nan;100731.56;5017545;28;21049;-70
2023/06/07 04:24:06;;;;;;;3.70;1.97;;;17.80;95.70;;;18.23;nan;100738.16;5013099;28;20671;-68
2023/06/07 04:26:33;;;;;;;6.50;2.40;;;17.80;95.80;;;18.22;nan;100739.16;5012005;28;20635;-68
2023/06/07 04:29:00;;;;;;;2.07;1.97;;;17.80;95.90;;;18.15;nan;100738.13;5024050;28;20648;-72
2023/06/07 04:31:29;;;;;;;5.10;2.70;;;17.70;96.10;;;18.17;nan;100732.66;5031193;28;20652;-68
2023/06/07 04:33:57;;;;;;;2.03;1.93;;;17.70;96.50;;;18.22;nan;100736.50;5025458;28;20697;-70
2023/06/07 04:36:25;;;;;;;2.60;2.40;;;17.80;96.30;;;18.20;nan;100735.00;5032630;28;20611;-70
2023/06/07 04:38:53;;;;;;;2.77;2.27;;;17.80;96.50;;;18.23;nan;100734.72;5030880;28;20640;-67
2023/06/07 04:41:32;;;;;;;2.93;2.53;;;17.80;97.10;;;18.34;nan;100737.06;5033342;28;21100;-71
2023/06/07 04:44:11;;;;;;;2.00;1.90;;;17.90;97.00;;;18.43;nan;100729.03;5026801;28;20620;-67
2023/06/07 04:46:39;;;;;;;2.00;1.90;;;18.00;96.80;;;18.55;nan;100730.44;5016337;28;20629;-66
2023/06/07 04:49:07;;;;;;;2.40;2.20;;;18.10;96.60;;;18.61;nan;100726.34;5015534;28;20631;-65
2023/06/07 04:51:35;;;;;;;2.87;2.60;;;18.20;96.10;;;18.69;nan;100728.16;5028776;28;20672;-68
2023/06/07 04:54:04;;;;;;;2.40;2.30;;;18.20;96.20;;;18.78;nan;100737.78;5024070;28;20633;-67
2023/06/07 04:56:31;;;;;;;2.43;2.33;;;18.30;96.00;;;18.78;nan;100735.97;5025138;28;20629;-69
2023/06/07 04:58:58;;;;;;;2.93;2.60;;;18.30;96.00;;;18.85;nan;100738.78;5014830;28;20637;-69
2023/06/07 05:01:27;;;;;;;2.50;2.20;;;18.40;96.00;;;18.91;nan;100740.81;5032050;28;20664;-67
2023/06/07 05:04:02;;;;;;;3.00;2.77;;;18.40;95.90;;;18.96;nan;100744.63;5032037;28;20612;-69
2023/06/07 05:06:31;;;;;;;2.03;1.93;;;18.50;95.70;;;19.00;nan;100729.25;5019393;28;20635;-68
2023/06/07 05:08:58;;;;;;;2.20;2.07;;;18.60;95.80;;;19.03;nan;100743.00;5029596;28;20593;-69
2023/06/07 05:11:25;;;;;;;2.40;2.20;;;18.60;95.50;;;18.98;nan;100739.16;5028488;28;20664;-67
2023/06/07 05:13:52;;;;;;;3.47;2.40;;;18.60;95.60;;;18.98;nan;100745.28;5018438;28;20616;-67
2023/06/07 05:16:19;;;;;;;2.47;2.37;;;18.60;95.70;;;19.00;nan;100745.94;5026642;28;20597;-67
2023/06/07 05:18:48;;;;;;;3.50;2.20;;;18.60;95.80;;;19.01;nan;100746.78;5015442;28;21181;-66
2023/06/07 05:21:15;;;;;;;2.80;2.60;;;18.60;95.50;;;18.99;nan;100743.47;5024200;28;20661;-66
2023/06/07 05:23:43;;;;;;;3.80;3.10;;;18.60;95.50;;;19.02;nan;100751.06;5019279;28;20641;-66
2023/06/07 05:26:10;;;;;;;3.00;2.70;;;18.60;95.60;;;19.16;nan;100750.44;5029389;28;20678;-67
2023/06/07 05:28:37;;;;;;;2.43;2.30;;;18.70;95.30;;;19.26;nan;100757.25;5024599;28;21240;-70
2023/06/07 05:31:04;;;;;;;2.50;2.20;;;18.80;95.10;;;19.45;nan;100752.66;5024018;28;20659;-70
2023/06/07 05:33:32;;;;;;;2.23;2.13;;;18.90;94.70;;;19.57;nan;100749.50;5013653;28;20632;-66
2023/06/07 05:35:59;;;;;;;2.30;2.20;;;19.10;94.30;;;19.68;nan;100751.00;5013000;28;21161;-69
2023/06/07 05:38:26;;;;;;;2.47;2.37;;;19.20;93.60;;;19.75;nan;100746.72;5025019;28;21223;-68
2023/06/07 05:40:55;;;;;;;2.77;2.40;;;19.30;92.90;;;19.89;nan;100749.50;5012821;28;21031;-67
2023/06/07 05:43:22;;;;;;;2.07;1.97;;;19.40;92.20;;;20.18;nan;100753.44;5012992;28;20629;-67
2023/06/07 05:45:49;;;;;;;2.33;2.13;;;19.70;91.70;;;20.68;nan;100749.50;5028109;28;21357;-68
2023/06/07 05:48:16;;;;;;;2.23;2.03;;;20.10;91.00;;;21.11;nan;100748.16;5011987;28;20677;-68
2023/06/07 05:50:43;;;;;;;2.37;2.20;;;20.60;90.00;;;21.35;nan;100742.69;5025544;28;20679;-69
2023/06/07 05:53:11;;;;;;;2.33;2.23;;;20.80;88.50;;;21.67;nan;100741.59;5021958;28;20641;-68
2023/06/07 05:55:38;;;;;;;2.37;2.17;;;21.10;87.60;;;22.15;nan;100743.81;5031292;28;20615;-68
2023/06/07 05:58:05;;;;;;;2.10;2.00;;;21.60;86.00;;;22.59;nan;100745.69;5027539;28;20636;-68
2023/06/07 06:00:32;;;;;;;3.33;2.50;;;22.00;83.60;;;22.92;nan;100747.75;5027795;28;20668;-67
2023/06/07 06:03:01;;;;;;;3.10;2.90;;;22.40;81.90;;;23.11;nan;100744.47;5015932;28;20629;-67
2023/06/07 06:05:28;;;;;;;3.10;2.80;;;22.60;81.00;;;23.23;nan;100743.97;5028984;28;21246;-71
2023/06/07 06:07:57;;;;;;;2.47;2.37;;;22.60;80.30;;;23.51;nan;100745.72;5025481;28;20675;-69
2023/06/07 06:10:25;;;;;;;4.20;3.00;;;22.90;79.50;;;23.59;nan;100745.59;5014849;28;20653;-67
2023/06/07 06:12:52;;;;;;;5.20;3.40;;;23.10;79.40;;;23.70;nan;100742.41;5013077;28;20637;-70
2023/06/07 06:15:20;;;;;;;4.20;3.33;;;23.10;78.40;;;24.10;nan;100734.75;5021625;28;20640;-70
2023/06/07 06:17:49;;;;;;;5.00;3.20;;;23.50;77.90;;;24.57;nan;100740.13;5014427;28;20652;-71
2023/06/07 06:20:17;;;;;;;3.63;3.37;;;24.00;76.10;;;25.12;nan;100745.31;5021003;28;20742;-66
2023/06/07 06:22:44;;;;;;;2.43;2.33;;;24.50;74.60;;;25.61;nan;100747.66;5022969;28;20633;-68
2023/06/07 06:25:13;;;;;;;3.00;2.80;;;25.00;73.40;;;26.09;nan;100751.78;5019599;28;20637;-69
2023/06/07 06:27:41;;;;;;;2.60;2.50;;;25.50;71.40;;;26.56;nan;100752.47;5023816;28;20667;-68
2023/06/07 06:30:08;;;;;;;4.57;3.80;;;26.00;70.30;;;26.91;nan;100743.13;5031860;28;20608;-68
2023/06/07 06:32:36;;;;;;;4.27;3.23;;;26.40;69.20;;;27.38;nan;100755.22;5028676;28;20637;-71
2023/06/07 06:35:03;;;;;;;2.93;2.70;;;26.80;68.40;;;27.89;nan;100749.66;5013490;28;20630;-69
2023/06/07 06:37:31;;;;;;;3.80;3.03;;;27.30;67.20;;;28.51;nan;100754.03;5007984;28;20993;-65
2023/06/07 06:39:58;;;;;;;3.13;2.93;;;27.90;66.20;;;29.01;nan;100760.84;5029146;28;20622;-69
2023/06/07 06:42:25;;;;;;;3.33;3.10;;;28.40;65.20;;;29.51;nan;100753.31;5025504;28;21207;-67
2023/06/07 06:44:52;;;;;;;2.90;2.50;;;29.00;63.70;;;30.20;nan;100758.78;5031274;28;20643;-70
2023/06/07 06:47:19;;;;;;;3.10;2.90;;;29.70;62.70;;;30.69;nan;100756.63;5047796;28;20604;-69
2023/06/07 06:49:45;;;;;;;3.30;2.70;;;30.20;61.40;;;31.01;nan;100765.91;5031136;28;20624;-69
2023/06/07 06:52:13;;;;;;;2.87;2.67;;;30.60;60.20;;;31.65;nan;100767.34;5018051;28;21247;-69
2023/06/07 06:54:39;;;;;;;2.50;2.40;;;31.20;59.30;;;32.07;nan;100763.19;5027069;28;20698;-69
2023/06/07 06:57:08;;;;;;;3.30;3.00;;;31.60;57.60;;;32.27;nan;100759.94;5028837;28;20627;-66
2023/06/07 06:59:35;;;;;;;3.30;3.00;;;31.90;57.20;;;32.59;nan;100766.34;5014141;28;21167;-67
2023/06/07 07:02:02;;;;;;;3.67;3.10;;;32.20;56.60;;;32.93;nan;100762.44;5029615;28;21026;-69
2023/06/07 07:04:31;;;;;;;3.30;3.10;;;32.50;56.00;;;33.58;nan;100765.03;5028428;28;20664;-70
2023/06/07 07:06:58;;;;;;;3.80;3.47;;;33.10;55.20;;;33.78;nan;100767.09;5030982;28;21137;-67
2023/06/07 07:09:25;;;;;;;3.90;3.60;;;33.40;54.00;;;34.05;nan;100767.84;5029625;28;20730;-67
2023/06/07 07:11:52;;;;;;;3.17;2.97;;;33.70;53.60;;;34.48;nan;100766.72;5030629;28;20656;-67
2023/06/07 07:14:19;;;;;;;4.07;3.70;;;34.10;53.10;;;35.28;nan;100775.16;5021719;28;20640;-66
2023/06/07 07:16:46;;;;;;;3.87;3.67;;;34.70;52.60;;;35.38;nan;100783.31;5017086;28;20625;-73
2023/06/07 07:19:13;;;;;;;4.73;3.17;;;35.00;51.50;;;35.39;nan;100786.84;5014746;28;20637;-68
2023/06/07 07:21:43;;;;;;;4.20;3.90;;;35.20;51.00;;;35.27;nan;100778.16;5009339;28;20661;-68
2023/06/07 07:24:10;;;;;;;5.50;5.00;;;35.10;50.60;;;35.69;nan;100784.19;5025218;28;20636;-67
2023/06/07 07:26:39;;;;;;;5.00;4.37;;;35.40;50.60;;;36.11;nan;100781.97;5028993;28;20640;-67
2023/06/07 07:29:06;;;;;;;3.60;3.40;;;35.70;50.10;;;36.47;nan;100780.81;5028151;28;20672;-69
2023/06/07 07:31:33;;;;;;;5.60;5.20;;;36.10;49.80;;;36.23;nan;100778.94;5029987;28;21113;-72
2023/06/07 07:34:03;;;;;;;4.20;3.80;;;36.10;49.50;;;36.35;nan;100776.75;5022080;28;20641;-69
2023/06/07 07:36:33;;;;;;;3.30;2.90;;;36.10;49.70;;;36.59;nan;100778.59;5009906;28;20671;-67
2023/06/07 07:39:04;;;;;;;2.70;2.60;;;36.40;49.20;;;36.82;nan;100771.69;5015716;28;20636;-67
2023/06/07 07:41:33;;;;;;;4.37;4.10;;;36.70;48.90;;;37.40;nan;100777.38;5028856;28;20714;-68
2023/06/07 07:44:02;;;;;;;3.30;3.13;;;37.10;48.50;;;38.03;nan;100779.84;5010484;28;20664;-67
2023/06/07 07:46:29;;;;;;;4.10;3.80;;;37.60;48.10;;;38.53;nan;100781.19;5029211;28;20625;-68
2023/06/07 07:48:56;;;;;;;2.20;2.10;;;38.20;47.70;;;38.84;nan;100776.19;5008885;28;20673;-67
2023/06/07 07:51:24;;;;;;;2.60;2.50;;;38.50;46.70;;;39.23;nan;100782.16;5009591;28;20664;-68
2023/06/07 07:53:52;;;;;;;3.03;2.83;;;38.80;46.70;;;39.36;nan;100773.22;5010713;28;20660;-69
2023/06/07 07:56:21;;;;;;;3.10;3.00;;;39.00;46.10;;;39.57;nan;100781.94;5009995;28;20645;-68
2023/06/07 07:58:49;;;;;;;2.40;2.30;;;39.30;45.70;;;39.63;nan;100778.03;5012640;28;21197;-68
2023/06/07 08:01:18;;;;;;;2.43;2.33;;;39.30;45.40;;;39.20;nan;100777.31;5027540;28;21037;-67
2023/06/07 08:03:47;;;;;;;4.57;2.20;;;39.20;45.50;;;39.22;nan;100775.09;5025404;28;20650;-68
2023/06/07 08:06:15;;;;;;;2.37;2.27;;;39.30;45.40;;;39.32;nan;100769.47;5010942;28;21209;-67
2023/06/07 08:08:46;;;;;;;2.63;2.53;;;39.40;45.20;;;39.81;nan;100779.88;5016615;28;20649;-68
2023/06/07 08:11:13;;;;;;;2.20;2.10;;;39.80;45.00;;;40.20;nan;100776.72;5013002;28;20797;-68
2023/06/07 08:13:40;;;;;;;2.70;2.70;;;40.20;44.60;;;40.86;nan;100774.28;5011775;28;20637;-68
2023/06/07 08:16:07;;;;;;;2.57;2.37;;;40.60;44.60;;;40.58;nan;100774.59;5025711;28;21201;-68
2023/06/07 08:18:34;;;;;;;3.40;3.30;;;40.60;44.10;;;40.54;nan;100771.69;5010855;28;20640;-67
2023/06/07 08:21:03;;;;;;;3.43;3.23;;;40.50;44.30;;;40.70;nan;100767.50;5012734;28;20672;-69
2023/06/07 08:23:31;;;;;;;3.07;2.93;;;40.60;44.20;;;40.67;nan;100764.56;5011684;28;20633;-67
2023/06/07 08:25:58;;;;;;;2.40;2.40;;;40.60;44.10;;;40.79;nan;100768.41;5013670;28;20641;-68
2023/06/07 08:28:25;;;;;;;4.97;4.67;;;40.80;44.00;;;40.81;nan;100751.66;5030738;28;20656;-70
2023/06/07 08:30:53;;;;;;;3.20;3.10;;;40.70;43.70;;;41.29;nan;100760.19;5012812;28;20700;-68
2023/06/07 08:33:20;;;;;;;3.07;2.97;;;41.00;43.70;;;41.61;nan;100762.66;5030417;28;20632;-68
2023/06/07 08:35:47;;;;;;;3.13;3.03;;;41.40;43.40;;;41.34;nan;100765.56;5029040;28;20636;-68
2023/06/07 08:38:14;;;;;;;3.13;3.03;;;41.40;43.10;;;41.28;nan;100758.56;5024772;28;20636;-68
2023/06/07 08:40:41;;;;;;;2.67;2.57;;;41.30;42.90;;;41.39;nan;100759.94;5032164;28;21075;-70
2023/06/07 08:43:08;;;;;;;2.80;2.80;;;41.30;43.00;;;41.69;nan;100756.44;5026490;28;20639;-70
2023/06/07 08:45:35;;;;;;;3.10;3.00;;;41.60;42.80;;;41.84;nan;100760.72;5018255;28;20632;-68
2023/06/07 08:48:06;;;;;;;3.37;3.27;;;41.90;42.80;;;42.04;nan;100760.16;5034608;28;20675;-71
2023/06/07 08:50:34;;;;;;;2.60;2.50;;;42.10;42.30;;;42.35;nan;100761.75;5031600;28;20644;-67
2023/06/07 08:53:09;;;;;;;3.00;2.90;;;42.40;43.20;;;42.71;nan;100764.28;5019577;28;20707;-69
2023/06/07 08:55:37;;;;;;;4.00;3.80;;;42.70;42.10;;;42.40;nan;100758.84;5017634;28;20632;-69
2023/06/07 08:58:07;;;;;;;3.70;3.50;;;42.50;41.90;;;42.38;nan;100769.34;5021732;28;20641;-70
2023/06/07 09:00:35;;;;;;;3.60;3.30;;;42.50;41.90;;;42.82;nan;100770.25;5017077;28;20668;-68
2023/06/07 09:03:03;;;;;;;2.97;2.87;;;42.70;41.80;;;42.79;nan;100770.91;5030922;28;20608;-68
2023/06/07 09:05:30;;;;;;;2.90;2.80;;;42.80;41.50;;;43.24;nan;100769.50;5027052;28;20648;-67
2023/06/07 09:07:57;;;;;;;3.10;3.00;;;43.10;41.40;;;43.91;nan;100775.22;5012389;28;20620;-68
2023/06/07 09:10:24;;;;;;;3.40;3.30;;;43.80;41.30;;;42.70;nan;100767.34;5011934;28;20656;-69
2023/06/07 09:12:51;;;;;;;2.87;2.77;;;42.90;41.40;;;41.63;nan;100772.19;5013164;28;20636;-68
2023/06/07 09:15:20;;;;;;;3.40;3.30;;;42.20;41.60;;;40.24;nan;100764.06;5021932;28;20985;-67
2023/06/07 09:17:51;;;;;;;3.57;3.37;;;40.70;42.50;;;39.17;nan;100758.81;5029964;28;20599;-68
2023/06/07 09:20:31;;;;;;;4.43;4.13;;;39.60;43.30;;;37.73;nan;100752.84;5029813;28;20655;-70
2023/06/07 09:23:11;;;;;;;43.53;4.10;;;38.10;45.00;;;36.60;nan;100749.50;5024797;28;20694;-68
2023/06/07 09:25:38;;;;;;;4.10;3.90;;;37.00;45.50;;;35.66;nan;100746.69;5014314;28;21230;-68
2023/06/07 09:28:10;;;;;;;4.20;3.80;;;35.90;46.40;;;34.19;nan;100742.75;5022971;28;20753;-68
2023/06/07 09:30:59;;;;;;;4.23;3.67;;;34.50;47.80;;;33.41;nan;100734.56;5024554;28;20665;-67
2023/06/07 09:33:28;;;;;;;4.10;3.80;;;33.40;49.40;;;33.83;nan;100742.75;5031075;28;20616;-68
2023/06/07 09:36:12;;;;;;;3.53;3.33;;;33.60;49.10;;;34.45;nan;100745.56;5022874;28;20633;-68
2023/06/07 09:38:41;;;;;;;3.93;3.63;;;34.00;49.20;;;35.86;nan;100746.69;5021401;28;20641;-71
2023/06/07 09:41:12;;;;;;;3.63;3.40;;;35.30;48.10;;;37.11;nan;100756.31;5027537;28;20747;-67
2023/06/07 09:43:50;;;;;;;4.27;3.97;;;36.70;46.60;;;37.75;nan;100747.94;5011374;28;20633;-71
2023/06/07 09:46:19;;;;;;;4.10;3.87;;;37.50;46.00;;;38.42;nan;100748.91;5031125;28;20603;-69
2023/06/07 09:48:51;;;;;;;3.90;3.60;;;38.10;45.10;;;39.39;nan;100745.34;5008747;28;21081;-70
2023/06/07 09:51:20;;;;;;;3.20;3.00;;;39.00;44.40;;;40.14;nan;100758.81;5020830;28;20695;-69
2023/06/07 09:53:52;;;;;;;3.93;3.70;;;39.90;43.90;;;40.46;nan;100757.91;5029879;28;20973;-68
2023/06/07 09:56:21;;;;;;;3.53;3.37;;;40.20;43.80;;;39.52;nan;100744.59;5024697;28;20697;-69
2023/06/07 09:59:06;;;;;;;2.97;2.87;;;40.00;43.50;;;39.50;nan;100751.44;5023845;28;21219;-67
2023/06/07 10:01:41;;;;;;;3.10;3.00;;;39.60;43.80;;;38.67;nan;100737.66;5036058;28;20678;-72
2023/06/07 10:04:11;;;;;;;4.40;4.10;;;38.70;44.50;;;38.03;nan;100736.25;5028383;28;20632;-67
2023/06/07 10:06:43;;;;;;;3.77;3.53;;;37.90;45.10;;;36.79;nan;100726.03;5025885;28;21202;-70
2023/06/07 10:09:11;;;;;;;3.23;3.03;;;36.70;46.30;;;36.26;nan;100730.31;5017270;28;20675;-67
2023/06/07 10:11:45;;;;;;;4.00;3.80;;;35.90;47.00;;;35.94;nan;100724.41;5030286;28;20648;-68
2023/06/07 10:14:14;;;;;;;3.33;3.13;;;35.50;47.40;;;35.17;nan;100740.13;5020388;28;20628;-71
2023/06/07 10:16:52;;;;;;;3.67;3.47;;;34.70;48.20;;;34.08;nan;100730.22;5032958;28;20636;-68
2023/06/07 10:19:27;;;;;;;3.13;2.83;;;33.80;49.00;;;33.54;nan;100721.44;5022073;28;20600;-68
2023/06/07 10:21:56;;;;;;;3.50;3.30;;;33.20;49.70;;;33.00;nan;100725.25;5023738;28;20661;-70
2023/06/07 10:24:36;;;;;;;3.87;3.53;;;32.60;50.40;;;32.51;nan;100710.06;5010604;28;20612;-68
2023/06/07 10:27:13;;;;;;;4.27;4.03;;;32.10;50.90;;;32.09;nan;100709.78;5025142;28;20641;-66
2023/06/07 10:30:10;;;;;;;4.30;4.00;;;31.70;51.40;;;31.55;nan;100713.25;5017289;28;20657;-69
2023/06/07 10:32:38;;;;;;;5.00;4.60;;;31.30;52.00;;;30.96;nan;100710.06;5016722;28;20640;-68